sensor_id;sensor_type;location;lat;lon;timestamp;P1;durP1;ratioP1;P2;durP2;ratioP2
60002;SDS011;46322;52.018;8.702;2023-04-24T00:00:52;1.95;;;0.50;;
60002;SDS011;46322;52.018;8.702;2023-04-24T00:06:13;2.50;;;0.63;;
60002;SDS011;46322;52.018;8.702;2023-04-24T00:11:34;2.90;;;0.70;;
60002;SDS011;46322;52.018;8.702;2023-04-24T00:16:54;2.20;;;0.70;;
60002;SDS011;46322;52.018;8.702;2023-04-24T00:22:15;2.83;;;0.80;;
60002;SDS011;46322;52.018;8.702;2023-04-24T00:27:35;2.70;;;0.80;;
60002;SDS011;46322;52.018;8.702;2023-04-24T00:32:56;4.10;;;1.13;;
60002;SDS011;46322;52.018;8.702;2023-04-24T00:38:17;2.70;;;1.00;;
60002;SDS011;46322;52.018;8.702;2023-04-24T00:43:38;3.03;;;1.07;;
60002;SDS011;46322;52.018;8.702;2023-04-24T00:48:59;2.80;;;1.20;;
60002;SDS011;46322;52.018;8.702;2023-04-24T00:54:20;3.33;;;1.17;;
60002;SDS011;46322;52.018;8.702;2023-04-24T00:59:41;4.30;;;1.33;;
60002;SDS011;46322;52.018;8.702;2023-04-24T01:05:02;2.83;;;1.20;;
60002;SDS011;46322;52.018;8.702;2023-04-24T01:10:23;2.90;;;1.20;;
60002;SDS011;46322;52.018;8.702;2023-04-24T01:15:45;3.10;;;1.15;;
60002;SDS011;46322;52.018;8.702;2023-04-24T01:21:06;2.80;;;1.20;;
60002;SDS011;46322;52.018;8.702;2023-04-24T01:26:29;2.70;;;1.00;;
60002;SDS011;46322;52.018;8.702;2023-04-24T01:31:49;3.23;;;1.03;;
60002;SDS011;46322;52.018;8.702;2023-04-24T01:37:10;2.33;;;0.90;;
60002;SDS011;46322;52.018;8.702;2023-04-24T01:42:31;2.08;;;0.73;;
60002;SDS011;46322;52.018;8.702;2023-04-24T01:47:51;2.37;;;0.90;;
60002;SDS011;46322;52.018;8.702;2023-04-24T01:53:12;2.10;;;0.63;;
60002;SDS011;46322;52.018;8.702;2023-04-24T01:58:33;2.60;;;1.05;;
60002;SDS011;46322;52.018;8.702;2023-04-24T02:03:53;2.53;;;0.90;;
60002;SDS011;46322;52.018;8.702;2023-04-24T02:09:14;2.72;;;0.98;;
60002;SDS011;46322;52.018;8.702;2023-04-24T02:14:34;2.60;;;0.90;;
60002;SDS011;46322;52.018;8.702;2023-04-24T02:19:55;2.58;;;1.20;;
60002;SDS011;46322;52.018;8.702;2023-04-24T02:25:16;3.60;;;1.30;;
60002;SDS011;46322;52.018;8.702;2023-04-24T02:30:36;2.80;;;0.93;;
60002;SDS011;46322;52.018;8.702;2023-04-24T02:35:57;2.97;;;0.90;;
60002;SDS011;46322;52.018;8.702;2023-04-24T02:41:17;2.70;;;1.00;;
60002;SDS011;46322;52.018;8.702;2023-04-24T02:46:38;2.53;;;0.80;;
60002;SDS011;46322;52.018;8.702;2023-04-24T02:51:58;2.80;;;0.98;;
60002;SDS011;46322;52.018;8.702;2023-04-24T02:57:19;3.58;;;0.88;;
60002;SDS011;46322;52.018;8.702;2023-04-24T03:02:40;2.75;;;1.00;;
60002;SDS011;46322;52.018;8.702;2023-04-24T03:08:00;2.30;;;1.00;;
60002;SDS011;46322;52.018;8.702;2023-04-24T03:13:21;2.20;;;0.85;;
60002;SDS011;46322;52.018;8.702;2023-04-24T03:18:41;2.47;;;0.90;;
60002;SDS011;46322;52.018;8.702;2023-04-24T03:24:02;2.20;;;0.70;;
60002;SDS011;46322;52.018;8.702;2023-04-24T03:29:22;2.10;;;0.87;;
60002;SDS011;46322;52.018;8.702;2023-04-24T03:34:43;2.50;;;0.80;;
60002;SDS011;46322;52.018;8.702;2023-04-24T03:40:04;2.55;;;1.00;;
60002;SDS011;46322;52.018;8.702;2023-04-24T03:45:25;3.20;;;0.90;;
60002;SDS011;46322;52.018;8.702;2023-04-24T03:50:45;3.28;;;0.90;;
60002;SDS011;46322;52.018;8.702;2023-04-24T03:56:06;2.90;;;0.90;;
60002;SDS011;46322;52.018;8.702;2023-04-24T04:01:26;3.15;;;1.00;;
60002;SDS011;46322;52.018;8.702;2023-04-24T04:06:47;3.40;;;1.20;;
60002;SDS011;46322;52.018;8.702;2023-04-24T04:12:08;3.83;;;1.20;;
60002;SDS011;46322;52.018;8.702;2023-04-24T04:17:28;4.10;;;1.37;;
60002;SDS011;46322;52.018;8.702;2023-04-24T04:22:49;3.00;;;1.35;;
60002;SDS011;46322;52.018;8.702;2023-04-24T04:28:10;4.20;;;1.42;;
60002;SDS011;46322;52.018;8.702;2023-04-24T04:33:30;3.70;;;1.45;;
60002;SDS011;46322;52.018;8.702;2023-04-24T04:38:51;5.10;;;1.60;;
60002;SDS011;46322;52.018;8.702;2023-04-24T04:44:11;5.30;;;2.00;;
60002;SDS011;46322;52.018;8.702;2023-04-24T04:49:32;4.10;;;2.08;;
60002;SDS011;46322;52.018;8.702;2023-04-24T04:54:52;4.83;;;2.57;;
60002;SDS011;46322;52.018;8.702;2023-04-24T05:00:13;5.03;;;2.50;;
60002;SDS011;46322;52.018;8.702;2023-04-24T05:05:34;5.32;;;2.90;;
60002;SDS011;46322;52.018;8.702;2023-04-24T05:10:54;6.90;;;3.20;;
60002;SDS011;46322;52.018;8.702;2023-04-24T05:16:15;6.37;;;3.37;;
60002;SDS011;46322;52.018;8.702;2023-04-24T05:21:36;8.83;;;4.60;;
60002;SDS011;46322;52.018;8.702;2023-04-24T05:26:56;9.57;;;4.73;;
60002;SDS011;46322;52.018;8.702;2023-04-24T05:32:17;10.50;;;5.53;;
60002;SDS011;46322;52.018;8.702;2023-04-24T05:37:37;10.15;;;5.78;;
60002;SDS011;46322;52.018;8.702;2023-04-24T05:42:58;11.55;;;6.18;;
60002;SDS011;46322;52.018;8.702;2023-04-24T05:48:19;11.20;;;6.80;;
60002;SDS011;46322;52.018;8.702;2023-04-24T05:53:39;14.43;;;7.17;;
60002;SDS011;46322;52.018;8.702;2023-04-24T05:59:00;13.83;;;6.80;;
60002;SDS011;46322;52.018;8.702;2023-04-24T06:04:20;14.20;;;7.47;;
60002;SDS011;46322;52.018;8.702;2023-04-24T06:09:41;12.83;;;7.20;;
60002;SDS011;46322;52.018;8.702;2023-04-24T06:15:02;14.93;;;7.68;;
60002;SDS011;46322;52.018;8.702;2023-04-24T06:20:23;15.10;;;8.50;;
60002;SDS011;46322;52.018;8.702;2023-04-24T06:25:44;13.93;;;7.60;;
60002;SDS011;46322;52.018;8.702;2023-04-24T06:31:04;13.93;;;7.77;;
60002;SDS011;46322;52.018;8.702;2023-04-24T06:36:25;13.77;;;8.00;;
60002;SDS011;46322;52.018;8.702;2023-04-24T06:41:46;15.77;;;7.80;;
60002;SDS011;46322;52.018;8.702;2023-04-24T06:47:07;13.60;;;8.02;;
60002;SDS011;46322;52.018;8.702;2023-04-24T06:52:28;13.85;;;7.82;;
60002;SDS011;46322;52.018;8.702;2023-04-24T06:57:48;16.15;;;9.00;;
60002;SDS011;46322;52.018;8.702;2023-04-24T07:03:09;15.27;;;8.55;;
60002;SDS011;46322;52.018;8.702;2023-04-24T07:08:30;15.30;;;8.40;;
60002;SDS011;46322;52.018;8.702;2023-04-24T07:13:50;13.13;;;6.80;;
60002;SDS011;46322;52.018;8.702;2023-04-24T07:19:11;14.13;;;7.60;;
60002;SDS011;46322;52.018;8.702;2023-04-24T07:24:33;15.15;;;8.93;;
60002;SDS011;46322;52.018;8.702;2023-04-24T07:29:53;16.70;;;9.00;;
60002;SDS011;46322;52.018;8.702;2023-04-24T07:35:14;14.32;;;8.55;;
60002;SDS011;46322;52.018;8.702;2023-04-24T07:40:35;11.20;;;6.73;;
60002;SDS011;46322;52.018;8.702;2023-04-24T07:45:55;11.87;;;6.43;;
60002;SDS011;46322;52.018;8.702;2023-04-24T07:51:16;10.40;;;6.10;;
60002;SDS011;46322;52.018;8.702;2023-04-24T07:56:36;10.00;;;6.75;;
60002;SDS011;46322;52.018;8.702;2023-04-24T08:01:57;11.48;;;6.78;;
60002;SDS011;46322;52.018;8.702;2023-04-24T08:07:18;10.55;;;6.15;;
60002;SDS011;46322;52.018;8.702;2023-04-24T08:12:38;9.35;;;6.07;;
60002;SDS011;46322;52.018;8.702;2023-04-24T08:17:59;10.23;;;5.80;;
60002;SDS011;46322;52.018;8.702;2023-04-24T08:23:19;8.73;;;5.60;;
60002;SDS011;46322;52.018;8.702;2023-04-24T08:28:40;7.10;;;4.33;;
60002;SDS011;46322;52.018;8.702;2023-04-24T08:34:00;6.65;;;4.30;;
60002;SDS011;46322;52.018;8.702;2023-04-24T08:39:21;6.30;;;4.20;;
60002;SDS011;46322;52.018;8.702;2023-04-24T08:44:42;6.00;;;3.88;;
60002;SDS011;46322;52.018;8.702;2023-04-24T08:50:03;6.83;;;3.80;;
60002;SDS011;46322;52.018;8.702;2023-04-24T08:55:24;5.75;;;3.30;;
60002;SDS011;46322;52.018;8.702;2023-04-24T09:00:45;5.20;;;2.80;;
60002;SDS011;46322;52.018;8.702;2023-04-24T09:06:06;5.03;;;3.13;;
60002;SDS011;46322;52.018;8.702;2023-04-24T09:11:29;5.10;;;2.92;;
60002;SDS011;46322;52.018;8.702;2023-04-24T09:16:50;5.78;;;3.35;;
60002;SDS011;46322;52.018;8.702;2023-04-24T09:22:11;5.78;;;2.92;;
60002;SDS011;46322;52.018;8.702;2023-04-24T09:27:32;5.80;;;2.90;;
60002;SDS011;46322;52.018;8.702;2023-04-24T09:33:09;5.53;;;2.72;;
60002;SDS011;46322;52.018;8.702;2023-04-24T09:38:34;5.15;;;2.60;;
60002;SDS011;46322;52.018;8.702;2023-04-24T09:43:56;4.22;;;2.30;;
60002;SDS011;46322;52.018;8.702;2023-04-24T09:49:30;4.60;;;2.10;;
60002;SDS011;46322;52.018;8.702;2023-04-24T09:54:55;4.43;;;2.40;;
60002;SDS011;46322;52.018;8.702;2023-04-24T10:00:22;4.47;;;2.38;;
60002;SDS011;46322;52.018;8.702;2023-04-24T10:05:44;4.20;;;2.17;;
60002;SDS011;46322;52.018;8.702;2023-04-24T10:11:07;4.43;;;1.90;;
60002;SDS011;46322;52.018;8.702;2023-04-24T10:16:28;4.25;;;2.22;;
60002;SDS011;46322;52.018;8.702;2023-04-24T10:21:49;3.20;;;1.88;;
60002;SDS011;46322;52.018;8.702;2023-04-24T10:27:09;3.60;;;1.60;;
60002;SDS011;46322;52.018;8.702;2023-04-24T10:32:30;3.20;;;1.50;;
60002;SDS011;46322;52.018;8.702;2023-04-24T10:38:12;2.77;;;1.50;;
60002;SDS011;46322;52.018;8.702;2023-04-24T10:43:33;2.10;;;0.90;;
60002;SDS011;46322;52.018;8.702;2023-04-24T10:48:54;2.30;;;1.00;;
60002;SDS011;46322;52.018;8.702;2023-04-24T10:59:49;3.28;;;1.70;;
60002;SDS011;46322;52.018;8.702;2023-04-24T11:11:11;3.17;;;1.60;;
60002;SDS011;46322;52.018;8.702;2023-04-24T11:16:35;4.30;;;2.20;;
60002;SDS011;46322;52.018;8.702;2023-04-24T11:22:06;4.73;;;2.23;;
60002;SDS011;46322;52.018;8.702;2023-04-24T11:27:43;3.70;;;2.00;;
60002;SDS011;46322;52.018;8.702;2023-04-24T11:33:05;4.32;;;2.60;;
60002;SDS011;46322;52.018;8.702;2023-04-24T11:38:26;4.10;;;2.15;;
60002;SDS011;46322;52.018;8.702;2023-04-24T11:43:47;4.47;;;2.30;;
60002;SDS011;46322;52.018;8.702;2023-04-24T11:49:08;3.92;;;2.22;;
60002;SDS011;46322;52.018;8.702;2023-04-24T11:54:28;3.20;;;1.20;;
60002;SDS011;46322;52.018;8.702;2023-04-24T11:59:49;2.85;;;1.00;;
60002;SDS011;46322;52.018;8.702;2023-04-24T12:05:19;2.40;;;0.88;;
60002;SDS011;46322;52.018;8.702;2023-04-24T12:10:43;3.30;;;0.90;;
60002;SDS011;46322;52.018;8.702;2023-04-24T12:16:04;3.10;;;1.27;;
60002;SDS011;46322;52.018;8.702;2023-04-24T12:21:25;4.28;;;1.88;;
60002;SDS011;46322;52.018;8.702;2023-04-24T12:26:45;8.43;;;3.72;;
60002;SDS011;46322;52.018;8.702;2023-04-24T12:32:15;5.82;;;2.63;;
60002;SDS011;46322;52.018;8.702;2023-04-24T12:37:36;4.97;;;1.80;;
60002;SDS011;46322;52.018;8.702;2023-04-24T12:42:57;5.10;;;2.10;;
60002;SDS011;46322;52.018;8.702;2023-04-24T12:48:17;4.90;;;2.37;;
60002;SDS011;46322;52.018;8.702;2023-04-24T12:53:38;5.53;;;2.83;;
60002;SDS011;46322;52.018;8.702;2023-04-24T12:58:58;9.07;;;3.30;;
60002;SDS011;46322;52.018;8.702;2023-04-24T13:04:19;8.23;;;3.38;;
60002;SDS011;46322;52.018;8.702;2023-04-24T13:09:40;7.45;;;3.58;;
60002;SDS011;46322;52.018;8.702;2023-04-24T13:15:01;8.57;;;4.03;;
60002;SDS011;46322;52.018;8.702;2023-04-24T13:20:22;7.63;;;2.97;;
60002;SDS011;46322;52.018;8.702;2023-04-24T13:25:43;7.37;;;2.90;;
60002;SDS011;46322;52.018;8.702;2023-04-24T13:31:05;5.87;;;2.53;;
60002;SDS011;46322;52.018;8.702;2023-04-24T13:36:26;6.47;;;2.33;;
60002;SDS011;46322;52.018;8.702;2023-04-24T13:41:46;5.63;;;2.50;;
60002;SDS011;46322;52.018;8.702;2023-04-24T13:47:07;11.30;;;5.53;;
60002;SDS011;46322;52.018;8.702;2023-04-24T13:52:28;9.18;;;4.15;;
60002;SDS011;46322;52.018;8.702;2023-04-24T13:57:48;13.82;;;7.25;;
60002;SDS011;46322;52.018;8.702;2023-04-24T14:03:09;10.82;;;5.47;;
60002;SDS011;46322;52.018;8.702;2023-04-24T14:08:30;10.67;;;5.63;;
60002;SDS011;46322;52.018;8.702;2023-04-24T14:13:50;14.13;;;5.67;;
60002;SDS011;46322;52.018;8.702;2023-04-24T14:19:11;14.70;;;6.27;;
60002;SDS011;46322;52.018;8.702;2023-04-24T14:24:31;12.03;;;5.20;;
60002;SDS011;46322;52.018;8.702;2023-04-24T14:29:52;10.93;;;5.72;;
60002;SDS011;46322;52.018;8.702;2023-04-24T14:35:12;13.60;;;4.90;;
60002;SDS011;46322;52.018;8.702;2023-04-24T14:40:33;13.07;;;5.43;;
60002;SDS011;46322;52.018;8.702;2023-04-24T14:45:54;8.77;;;4.72;;
60002;SDS011;46322;52.018;8.702;2023-04-24T14:51:14;10.18;;;4.40;;
60002;SDS011;46322;52.018;8.702;2023-04-24T14:56:35;11.10;;;5.43;;
60002;SDS011;46322;52.018;8.702;2023-04-24T15:01:55;10.30;;;4.80;;
60002;SDS011;46322;52.018;8.702;2023-04-24T15:07:16;12.17;;;5.83;;
60002;SDS011;46322;52.018;8.702;2023-04-24T15:12:37;10.13;;;4.73;;
60002;SDS011;46322;52.018;8.702;2023-04-24T15:17:57;10.23;;;4.10;;
60002;SDS011;46322;52.018;8.702;2023-04-24T15:23:18;10.45;;;3.53;;
60002;SDS011;46322;52.018;8.702;2023-04-24T15:28:38;5.88;;;2.28;;
60002;SDS011;46322;52.018;8.702;2023-04-24T15:33:59;7.75;;;3.60;;
60002;SDS011;46322;52.018;8.702;2023-04-24T15:39:22;6.45;;;3.00;;
60002;SDS011;46322;52.018;8.702;2023-04-24T15:44:43;6.13;;;2.60;;
60002;SDS011;46322;52.018;8.702;2023-04-24T15:50:04;4.78;;;2.20;;
60002;SDS011;46322;52.018;8.702;2023-04-24T15:55:25;4.95;;;2.35;;
60002;SDS011;46322;52.018;8.702;2023-04-24T16:00:47;5.03;;;2.00;;
60002;SDS011;46322;52.018;8.702;2023-04-24T16:06:08;7.88;;;4.05;;
60002;SDS011;46322;52.018;8.702;2023-04-24T16:11:29;17.02;;;8.95;;
60002;SDS011;46322;52.018;8.702;2023-04-24T16:16:49;18.83;;;9.87;;
60002;SDS011;46322;52.018;8.702;2023-04-24T16:22:10;7.13;;;3.80;;
60002;SDS011;46322;52.018;8.702;2023-04-24T16:27:30;4.80;;;2.20;;
60002;SDS011;46322;52.018;8.702;2023-04-24T16:32:51;4.77;;;2.30;;
60002;SDS011;46322;52.018;8.702;2023-04-24T16:38:12;7.53;;;4.05;;
60002;SDS011;46322;52.018;8.702;2023-04-24T16:43:32;7.47;;;3.13;;
60002;SDS011;46322;52.018;8.702;2023-04-24T16:48:53;6.47;;;3.15;;
60002;SDS011;46322;52.018;8.702;2023-04-24T16:54:14;7.70;;;4.10;;
60002;SDS011;46322;52.018;8.702;2023-04-24T16:59:34;7.78;;;3.47;;
60002;SDS011;46322;52.018;8.702;2023-04-24T17:04:55;6.33;;;2.70;;
60002;SDS011;46322;52.018;8.702;2023-04-24T17:10:15;6.47;;;2.90;;
60002;SDS011;46322;52.018;8.702;2023-04-24T17:15:36;25.17;;;13.13;;
60002;SDS011;46322;52.018;8.702;2023-04-24T17:20:57;7.67;;;4.27;;
60002;SDS011;46322;52.018;8.702;2023-04-24T17:26:17;10.43;;;5.50;;
60002;SDS011;46322;52.018;8.702;2023-04-24T17:31:38;4.93;;;2.67;;
60002;SDS011;46322;52.018;8.702;2023-04-24T17:36:58;7.10;;;2.93;;
60002;SDS011;46322;52.018;8.702;2023-04-24T17:42:19;6.60;;;3.20;;
60002;SDS011;46322;52.018;8.702;2023-04-24T17:47:39;6.60;;;3.17;;
60002;SDS011;46322;52.018;8.702;2023-04-24T17:53:00;6.90;;;3.47;;
60002;SDS011;46322;52.018;8.702;2023-04-24T17:58:21;6.53;;;2.53;;
60002;SDS011;46322;52.018;8.702;2023-04-24T18:03:41;5.70;;;2.20;;
60002;SDS011;46322;52.018;8.702;2023-04-24T18:09:02;7.18;;;2.50;;
60002;SDS011;46322;52.018;8.702;2023-04-24T18:14:22;5.28;;;2.17;;
60002;SDS011;46322;52.018;8.702;2023-04-24T18:19:43;7.28;;;2.50;;
60002;SDS011;46322;52.018;8.702;2023-04-24T18:25:04;8.40;;;2.47;;
60002;SDS011;46322;52.018;8.702;2023-04-24T18:30:25;20.10;;;11.30;;
60002;SDS011;46322;52.018;8.702;2023-04-24T18:35:45;9.73;;;5.60;;
60002;SDS011;46322;52.018;8.702;2023-04-24T18:41:06;8.88;;;3.42;;
60002;SDS011;46322;52.018;8.702;2023-04-24T18:46:27;9.05;;;2.70;;
60002;SDS011;46322;52.018;8.702;2023-04-24T18:51:47;9.48;;;2.95;;
60002;SDS011;46322;52.018;8.702;2023-04-24T18:57:08;7.47;;;3.00;;
60002;SDS011;46322;52.018;8.702;2023-04-24T19:02:28;7.55;;;2.80;;
60002;SDS011;46322;52.018;8.702;2023-04-24T19:07:49;7.93;;;3.23;;
60002;SDS011;46322;52.018;8.702;2023-04-24T19:13:10;9.48;;;3.17;;
60002;SDS011;46322;52.018;8.702;2023-04-24T19:18:30;8.65;;;3.40;;
60002;SDS011;46322;52.018;8.702;2023-04-24T19:23:51;10.68;;;3.70;;
60002;SDS011;46322;52.018;8.702;2023-04-24T19:29:12;11.55;;;4.15;;
60002;SDS011;46322;52.018;8.702;2023-04-24T19:34:32;18.35;;;6.15;;
60002;SDS011;46322;52.018;8.702;2023-04-24T19:39:53;19.52;;;7.63;;
60002;SDS011;46322;52.018;8.702;2023-04-24T19:45:13;10.30;;;4.30;;
60002;SDS011;46322;52.018;8.702;2023-04-24T19:50:34;10.40;;;4.33;;
60002;SDS011;46322;52.018;8.702;2023-04-24T19:55:56;11.38;;;4.70;;
60002;SDS011;46322;52.018;8.702;2023-04-24T20:01:17;41.42;;;25.23;;
60002;SDS011;46322;52.018;8.702;2023-04-24T20:06:37;12.88;;;5.50;;
60002;SDS011;46322;52.018;8.702;2023-04-24T20:11:58;10.73;;;4.55;;
60002;SDS011;46322;52.018;8.702;2023-04-24T20:17:25;11.32;;;4.25;;
60002;SDS011;46322;52.018;8.702;2023-04-24T20:22:45;12.73;;;4.97;;
60002;SDS011;46322;52.018;8.702;2023-04-24T20:28:06;10.48;;;4.40;;
60002;SDS011;46322;52.018;8.702;2023-04-24T20:33:26;11.25;;;4.05;;
60002;SDS011;46322;52.018;8.702;2023-04-24T20:38:47;11.13;;;4.45;;
60002;SDS011;46322;52.018;8.702;2023-04-24T20:44:08;11.20;;;3.80;;
60002;SDS011;46322;52.018;8.702;2023-04-24T20:49:28;11.53;;;3.70;;
60002;SDS011;46322;52.018;8.702;2023-04-24T20:54:49;11.47;;;3.93;;
60002;SDS011;46322;52.018;8.702;2023-04-24T21:00:09;9.23;;;3.20;;
60002;SDS011;46322;52.018;8.702;2023-04-24T21:05:31;10.20;;;3.60;;
60002;SDS011;46322;52.018;8.702;2023-04-24T21:10:51;10.98;;;3.95;;
60002;SDS011;46322;52.018;8.702;2023-04-24T21:16:12;10.35;;;3.58;;
60002;SDS011;46322;52.018;8.702;2023-04-24T21:21:32;9.35;;;3.55;;
60002;SDS011;46322;52.018;8.702;2023-04-24T21:26:53;9.15;;;3.22;;
60002;SDS011;46322;52.018;8.702;2023-04-24T21:32:14;11.40;;;3.67;;
60002;SDS011;46322;52.018;8.702;2023-04-24T21:37:34;11.17;;;3.20;;
60002;SDS011;46322;52.018;8.702;2023-04-24T21:42:55;9.50;;;3.50;;
60002;SDS011;46322;52.018;8.702;2023-04-24T21:48:16;9.63;;;3.45;;
60002;SDS011;46322;52.018;8.702;2023-04-24T21:53:36;12.48;;;3.60;;
60002;SDS011;46322;52.018;8.702;2023-04-24T21:58:57;11.70;;;4.20;;
60002;SDS011;46322;52.018;8.702;2023-04-24T22:04:17;11.68;;;3.80;;
60002;SDS011;46322;52.018;8.702;2023-04-24T22:09:38;10.93;;;3.90;;
60002;SDS011;46322;52.018;8.702;2023-04-24T22:14:59;11.32;;;3.90;;
60002;SDS011;46322;52.018;8.702;2023-04-24T22:20:20;9.77;;;3.30;;
60002;SDS011;46322;52.018;8.702;2023-04-24T22:25:40;13.25;;;4.35;;
60002;SDS011;46322;52.018;8.702;2023-04-24T22:31:01;11.50;;;3.55;;
60002;SDS011;46322;52.018;8.702;2023-04-24T22:36:21;10.68;;;3.60;;
60002;SDS011;46322;52.018;8.702;2023-04-24T22:41:42;9.57;;;2.78;;
60002;SDS011;46322;52.018;8.702;2023-04-24T22:47:03;13.68;;;3.67;;
60002;SDS011;46322;52.018;8.702;2023-04-24T22:52:23;13.20;;;4.50;;
60002;SDS011;46322;52.018;8.702;2023-04-24T22:57:44;12.60;;;3.80;;
60002;SDS011;46322;52.018;8.702;2023-04-24T23:03:05;13.15;;;4.10;;
60002;SDS011;46322;52.018;8.702;2023-04-24T23:08:25;13.23;;;3.95;;
60002;SDS011;46322;52.018;8.702;2023-04-24T23:13:46;12.87;;;3.70;;
60002;SDS011;46322;52.018;8.702;2023-04-24T23:19:07;11.77;;;3.65;;
60002;SDS011;46322;52.018;8.702;2023-04-24T23:24:28;11.45;;;3.92;;
60002;SDS011;46322;52.018;8.702;2023-04-24T23:29:48;12.77;;;3.80;;
60002;SDS011;46322;52.018;8.702;2023-04-24T23:35:09;10.88;;;3.65;;
60002;SDS011;46322;52.018;8.702;2023-04-24T23:40:29;13.57;;;3.95;;
60002;SDS011;46322;52.018;8.702;2023-04-24T23:45:50;12.98;;;3.47;;
60002;SDS011;46322;52.018;8.702;2023-04-24T23:51:10;12.13;;;4.20;;
60002;SDS011;46322;52.018;8.702;2023-04-24T23:56:31;12.53;;;4.07;;
